sensor_id;sensor_type;location;lat;lon;timestamp;pressure;altitude;pressure_sealevel;temperature;humidity
70103;BME280;57470;50.034;15.256;2023-05-09T00:01:36;100256.00;;;7.66;74.93
70103;BME280;57470;50.034;15.256;2023-05-09T00:04:03;100256.56;;;7.73;74.62
70103;BME280;57470;50.034;15.256;2023-05-09T00:06:29;100261.16;;;7.69;74.70
70103;BME280;57470;50.034;15.256;2023-05-09T00:08:54;100258.75;;;7.83;73.67
70103;BME280;57470;50.034;15.256;2023-05-09T00:11:20;100258.84;;;8.01;72.68
70103;BME280;57470;50.034;15.256;2023-05-09T00:13:47;100248.38;;;7.98;72.85
70103;BME280;57470;50.034;15.256;2023-05-09T00:16:13;100256.69;;;7.90;73.16
70103;BME280;57470;50.034;15.256;2023-05-09T00:18:40;100254.06;;;7.70;73.99
70103;BME280;57470;50.034;15.256;2023-05-09T00:21:07;100253.00;;;7.74;74.08
70103;BME280;57470;50.034;15.256;2023-05-09T00:23:33;100252.53;;;7.64;74.13
70103;BME280;57470;50.034;15.256;2023-05-09T00:25:58;100265.53;;;7.50;74.03
70103;BME280;57470;50.034;15.256;2023-05-09T00:28:24;100250.19;;;7.58;74.73
70103;BME280;57470;50.034;15.256;2023-05-09T00:30:50;100241.09;;;7.64;74.25
70103;BME280;57470;50.034;15.256;2023-05-09T00:33:15;100245.47;;;7.44;74.93
70103;BME280;57470;50.034;15.256;2023-05-09T00:35:40;100237.28;;;7.30;75.28
70103;BME280;57470;50.034;15.256;2023-05-09T00:38:06;100250.84;;;7.23;75.08
70103;BME280;57470;50.034;15.256;2023-05-09T00:40:31;100242.03;;;7.22;75.21
70103;BME280;57470;50.034;15.256;2023-05-09T00:43:00;100244.81;;;7.19;75.26
70103;BME280;57470;50.034;15.256;2023-05-09T00:45:25;100243.28;;;7.13;75.24
70103;BME280;57470;50.034;15.256;2023-05-09T00:47:51;100242.53;;;7.10;75.10
70103;BME280;57470;50.034;15.256;2023-05-09T00:50:16;100239.09;;;7.08;75.05
70103;BME280;57470;50.034;15.256;2023-05-09T00:52:42;100229.72;;;7.01;75.47
70103;BME280;57470;50.034;15.256;2023-05-09T00:55:07;100237.78;;;6.98;75.72
70103;BME280;57470;50.034;15.256;2023-05-09T00:57:34;100236.44;;;6.88;75.81
70103;BME280;57470;50.034;15.256;2023-05-09T01:00:00;100229.28;;;6.90;75.81
70103;BME280;57470;50.034;15.256;2023-05-09T01:02:25;100229.53;;;6.84;75.52
70103;BME280;57470;50.034;15.256;2023-05-09T01:04:52;100221.72;;;6.81;75.74
70103;BME280;57470;50.034;15.256;2023-05-09T01:07:38;100226.09;;;6.82;75.74
70103;BME280;57470;50.034;15.256;2023-05-09T01:13:18;100218.81;;;6.66;76.15
70103;BME280;57470;50.034;15.256;2023-05-09T01:15:53;100218.00;;;6.64;75.97
70103;BME280;57470;50.034;15.256;2023-05-09T01:18:49;100212.00;;;6.61;76.31
70103;BME280;57470;50.034;15.256;2023-05-09T01:21:29;100215.34;;;6.64;75.63
70103;BME280;57470;50.034;15.256;2023-05-09T01:30:09;100214.28;;;6.70;76.01
70103;BME280;57470;50.034;15.256;2023-05-09T01:32:37;100202.78;;;6.49;77.52
70103;BME280;57470;50.034;15.256;2023-05-09T01:35:04;100209.56;;;6.55;77.95
70103;BME280;57470;50.034;15.256;2023-05-09T01:37:35;100213.97;;;6.34;78.76
70103;BME280;57470;50.034;15.256;2023-05-09T01:40:10;100219.34;;;6.31;78.82
70103;BME280;57470;50.034;15.256;2023-05-09T01:42:50;100208.03;;;6.06;80.68
70103;BME280;57470;50.034;15.256;2023-05-09T01:45:16;100206.91;;;6.11;80.80
70103;BME280;57470;50.034;15.256;2023-05-09T01:47:42;100211.34;;;6.11;80.56
70103;BME280;57470;50.034;15.256;2023-05-09T01:50:10;100217.66;;;6.07;80.38
70103;BME280;57470;50.034;15.256;2023-05-09T01:52:37;100215.75;;;6.10;80.58
70103;BME280;57470;50.034;15.256;2023-05-09T01:55:04;100207.31;;;6.00;80.93
70103;BME280;57470;50.034;15.256;2023-05-09T01:57:31;100206.09;;;5.86;80.91
70103;BME280;57470;50.034;15.256;2023-05-09T01:59:57;100204.31;;;5.63;81.80
70103;BME280;57470;50.034;15.256;2023-05-09T02:02:25;100213.53;;;5.75;81.09
70103;BME280;57470;50.034;15.256;2023-05-09T02:04:53;100208.31;;;5.73;80.84
70103;BME280;57470;50.034;15.256;2023-05-09T02:07:19;100210.47;;;5.63;81.40
70103;BME280;57470;50.034;15.256;2023-05-09T02:09:46;100207.00;;;5.61;81.44
70103;BME280;57470;50.034;15.256;2023-05-09T02:12:14;100201.84;;;5.58;81.29
70103;BME280;57470;50.034;15.256;2023-05-09T02:14:41;100209.19;;;5.50;81.63
70103;BME280;57470;50.034;15.256;2023-05-09T02:17:09;100203.47;;;5.38;82.40
70103;BME280;57470;50.034;15.256;2023-05-09T02:19:36;100196.00;;;5.25;82.43
70103;BME280;57470;50.034;15.256;2023-05-09T02:22:03;100205.56;;;5.28;81.56
70103;BME280;57470;50.034;15.256;2023-05-09T02:24:32;100197.88;;;5.22;81.95
70103;BME280;57470;50.034;15.256;2023-05-09T02:27:03;100194.38;;;5.21;82.10
70103;BME280;57470;50.034;15.256;2023-05-09T02:29:40;100185.47;;;5.25;82.04
70103;BME280;57470;50.034;15.256;2023-05-09T02:32:13;100185.88;;;5.13;81.87
70103;BME280;57470;50.034;15.256;2023-05-09T02:34:42;100189.56;;;5.09;81.84
70103;BME280;57470;50.034;15.256;2023-05-09T02:37:10;100190.19;;;4.91;82.33
70103;BME280;57470;50.034;15.256;2023-05-09T02:39:38;100192.59;;;4.97;82.42
70103;BME280;57470;50.034;15.256;2023-05-09T02:42:09;100192.59;;;4.97;82.49
70103;BME280;57470;50.034;15.256;2023-05-09T02:44:37;100194.78;;;4.84;83.29
70103;BME280;57470;50.034;15.256;2023-05-09T02:47:05;100198.19;;;4.88;82.46
70103;BME280;57470;50.034;15.256;2023-05-09T02:49:33;100199.19;;;4.84;82.95
70103;BME280;57470;50.034;15.256;2023-05-09T02:52:00;100203.75;;;4.79;83.25
70103;BME280;57470;50.034;15.256;2023-05-09T02:54:28;100197.06;;;4.69;83.73
70103;BME280;57470;50.034;15.256;2023-05-09T02:56:55;100190.41;;;4.57;84.45
70103;BME280;57470;50.034;15.256;2023-05-09T02:59:22;100195.66;;;4.59;83.83
70103;BME280;57470;50.034;15.256;2023-05-09T03:01:49;100186.84;;;4.60;84.01
70103;BME280;57470;50.034;15.256;2023-05-09T03:04:16;100181.66;;;4.57;83.30
70103;BME280;57470;50.034;15.256;2023-05-09T03:06:45;100185.97;;;4.59;83.62
70103;BME280;57470;50.034;15.256;2023-05-09T03:09:11;100185.09;;;4.59;82.63
70103;BME280;57470;50.034;15.256;2023-05-09T03:11:36;100180.38;;;4.42;83.25
70103;BME280;57470;50.034;15.256;2023-05-09T03:14:02;100182.72;;;4.51;83.52
70103;BME280;57470;50.034;15.256;2023-05-09T03:16:28;100181.94;;;4.47;83.40
70103;BME280;57470;50.034;15.256;2023-05-09T03:18:54;100173.88;;;4.53;83.34
70103;BME280;57470;50.034;15.256;2023-05-09T03:21:19;100178.31;;;4.51;82.92
70103;BME280;57470;50.034;15.256;2023-05-09T03:23:45;100165.06;;;4.55;83.34
70103;BME280;57470;50.034;15.256;2023-05-09T03:26:10;100167.81;;;4.50;83.48
70103;BME280;57470;50.034;15.256;2023-05-09T03:28:37;100176.69;;;4.47;83.59
70103;BME280;57470;50.034;15.256;2023-05-09T03:31:02;100177.56;;;4.48;83.39
70103;BME280;57470;50.034;15.256;2023-05-09T03:33:28;100168.94;;;4.43;83.39
70103;BME280;57470;50.034;15.256;2023-05-09T03:35:54;100171.63;;;4.41;83.27
70103;BME280;57470;50.034;15.256;2023-05-09T03:38:19;100176.28;;;4.33;83.85
70103;BME280;57470;50.034;15.256;2023-05-09T03:40:44;100174.44;;;4.37;84.12
70103;BME280;57470;50.034;15.256;2023-05-09T03:43:10;100176.31;;;4.32;84.05
70103;BME280;57470;50.034;15.256;2023-05-09T03:45:35;100169.94;;;4.39;83.68
70103;BME280;57470;50.034;15.256;2023-05-09T03:48:02;100181.34;;;4.39;84.43
70103;BME280;57470;50.034;15.256;2023-05-09T03:50:29;100165.53;;;4.39;84.22
70103;BME280;57470;50.034;15.256;2023-05-09T03:52:54;100165.75;;;4.33;84.37
70103;BME280;57470;50.034;15.256;2023-05-09T03:55:21;100164.69;;;4.39;85.29
70103;BME280;57470;50.034;15.256;2023-05-09T03:57:48;100161.56;;;4.28;84.94
70103;BME280;57470;50.034;15.256;2023-05-09T04:00:13;100165.38;;;4.45;85.36
70103;BME280;57470;50.034;15.256;2023-05-09T04:02:40;100164.13;;;4.82;85.05
70103;BME280;57470;50.034;15.256;2023-05-09T04:05:05;100166.00;;;5.28;83.89
70103;BME280;57470;50.034;15.256;2023-05-09T04:07:31;100162.31;;;6.03;81.98
70103;BME280;57470;50.034;15.256;2023-05-09T04:09:56;100162.09;;;6.31;80.73
70103;BME280;57470;50.034;15.256;2023-05-09T04:12:22;100155.50;;;6.84;79.51
70103;BME280;57470;50.034;15.256;2023-05-09T04:14:47;100166.19;;;8.18;74.84
70103;BME280;57470;50.034;15.256;2023-05-09T04:17:12;100149.00;;;8.45;72.91
70103;BME280;57470;50.034;15.256;2023-05-09T04:19:38;100143.41;;;8.33;73.81
70103;BME280;57470;50.034;15.256;2023-05-09T04:22:03;100152.63;;;8.24;75.76
70103;BME280;57470;50.034;15.256;2023-05-09T04:24:28;100144.31;;;7.77;76.06
70103;BME280;57470;50.034;15.256;2023-05-09T04:26:54;100135.63;;;7.54;75.68
70103;BME280;57470;50.034;15.256;2023-05-09T04:29:19;100134.47;;;7.41;75.57
70103;BME280;57470;50.034;15.256;2023-05-09T04:31:45;100139.78;;;7.01;76.99
70103;BME280;57470;50.034;15.256;2023-05-09T04:34:10;100137.47;;;6.93;77.76
70103;BME280;57470;50.034;15.256;2023-05-09T04:36:35;100137.53;;;6.92;77.53
70103;BME280;57470;50.034;15.256;2023-05-09T04:39:01;100141.63;;;6.58;80.43
70103;BME280;57470;50.034;15.256;2023-05-09T04:41:26;100143.19;;;6.62;80.97
70103;BME280;57470;50.034;15.256;2023-05-09T04:43:52;100139.63;;;6.43;82.32
70103;BME280;57470;50.034;15.256;2023-05-09T04:46:17;100145.38;;;6.31;84.45
70103;BME280;57470;50.034;15.256;2023-05-09T04:48:42;100144.03;;;6.43;84.58
70103;BME280;57470;50.034;15.256;2023-05-09T04:51:08;100151.13;;;6.62;83.41
70103;BME280;57470;50.034;15.256;2023-05-09T04:53:33;100149.19;;;6.46;85.43
70103;BME280;57470;50.034;15.256;2023-05-09T04:55:59;100143.19;;;6.42;85.61
70103;BME280;57470;50.034;15.256;2023-05-09T04:58:24;100142.16;;;6.01;86.47
70103;BME280;57470;50.034;15.256;2023-05-09T05:00:51;100133.75;;;5.91;87.68
70103;BME280;57470;50.034;15.256;2023-05-09T05:03:17;100140.34;;;5.80;88.52
70103;BME280;57470;50.034;15.256;2023-05-09T05:05:42;100146.72;;;5.97;88.24
70103;BME280;57470;50.034;15.256;2023-05-09T05:08:07;100146.94;;;6.15;87.17
70103;BME280;57470;50.034;15.256;2023-05-09T05:10:33;100151.09;;;6.42;86.66
70103;BME280;57470;50.034;15.256;2023-05-09T05:12:58;100141.88;;;6.09;88.31
70103;BME280;57470;50.034;15.256;2023-05-09T05:15:23;100141.88;;;6.52;85.64
70103;BME280;57470;50.034;15.256;2023-05-09T05:17:50;100139.94;;;6.56;86.67
70103;BME280;57470;50.034;15.256;2023-05-09T05:20:16;100148.13;;;6.28;86.19
70103;BME280;57470;50.034;15.256;2023-05-09T05:22:41;100146.84;;;6.60;85.47
70103;BME280;57470;50.034;15.256;2023-05-09T05:25:07;100150.28;;;6.40;86.54
70103;BME280;57470;50.034;15.256;2023-05-09T05:27:33;100146.25;;;6.31;86.65
70103;BME280;57470;50.034;15.256;2023-05-09T05:29:58;100144.06;;;6.83;84.61
70103;BME280;57470;50.034;15.256;2023-05-09T05:32:23;100148.03;;;6.53;85.44
70103;BME280;57470;50.034;15.256;2023-05-09T05:34:49;100149.19;;;6.88;85.12
70103;BME280;57470;50.034;15.256;2023-05-09T05:37:14;100138.59;;;7.08;83.76
70103;BME280;57470;50.034;15.256;2023-05-09T05:39:39;100139.50;;;7.07;84.74
70103;BME280;57470;50.034;15.256;2023-05-09T05:42:05;100144.53;;;7.33;83.22
70103;BME280;57470;50.034;15.256;2023-05-09T05:44:30;100136.59;;;7.52;82.85
70103;BME280;57470;50.034;15.256;2023-05-09T05:46:56;100140.72;;;7.78;83.34
70103;BME280;57470;50.034;15.256;2023-05-09T05:49:21;100135.19;;;8.20;80.51
70103;BME280;57470;50.034;15.256;2023-05-09T05:51:49;100128.47;;;8.32;79.75
70103;BME280;57470;50.034;15.256;2023-05-09T05:54:14;100127.78;;;8.26;79.60
70103;BME280;57470;50.034;15.256;2023-05-09T05:56:39;100126.94;;;8.07;79.92
70103;BME280;57470;50.034;15.256;2023-05-09T05:59:05;100134.75;;;8.48;78.98
70103;BME280;57470;50.034;15.256;2023-05-09T06:01:30;100130.38;;;8.28;79.03
70103;BME280;57470;50.034;15.256;2023-05-09T06:03:56;100123.75;;;8.73;78.95
70103;BME280;57470;50.034;15.256;2023-05-09T06:06:21;100121.44;;;8.84;76.83
70103;BME280;57470;50.034;15.256;2023-05-09T06:08:47;100117.25;;;8.95;75.90
70103;BME280;57470;50.034;15.256;2023-05-09T06:11:16;100114.00;;;9.40;75.29
70103;BME280;57470;50.034;15.256;2023-05-09T06:13:41;100101.03;;;9.19;75.93
70103;BME280;57470;50.034;15.256;2023-05-09T06:16:07;100102.38;;;9.59;75.89
70103;BME280;57470;50.034;15.256;2023-05-09T06:18:34;100103.19;;;9.28;77.26
70103;BME280;57470;50.034;15.256;2023-05-09T06:21:02;100109.00;;;9.67;76.30
70103;BME280;57470;50.034;15.256;2023-05-09T06:23:27;100105.16;;;9.89;74.99
70103;BME280;57470;50.034;15.256;2023-05-09T06:25:52;100109.19;;;10.11;73.54
70103;BME280;57470;50.034;15.256;2023-05-09T06:28:18;100104.03;;;10.56;72.26
70103;BME280;57470;50.034;15.256;2023-05-09T06:30:43;100099.84;;;10.20;73.43
70103;BME280;57470;50.034;15.256;2023-05-09T06:33:08;100099.41;;;10.43;72.62
70103;BME280;57470;50.034;15.256;2023-05-09T06:35:34;100105.03;;;10.83;72.73
70103;BME280;57470;50.034;15.256;2023-05-09T06:37:59;100092.53;;;10.99;70.88
70103;BME280;57470;50.034;15.256;2023-05-09T06:40:25;100089.91;;;10.83;71.40
70103;BME280;57470;50.034;15.256;2023-05-09T06:42:50;100094.00;;;10.45;70.20
70103;BME280;57470;50.034;15.256;2023-05-09T06:45:16;100089.84;;;10.85;67.80
70103;BME280;57470;50.034;15.256;2023-05-09T06:47:41;100089.34;;;10.78;69.55
70103;BME280;57470;50.034;15.256;2023-05-09T06:50:07;100076.88;;;10.35;69.46
70103;BME280;57470;50.034;15.256;2023-05-09T06:52:32;100078.16;;;10.58;67.81
70103;BME280;57470;50.034;15.256;2023-05-09T06:54:58;100068.78;;;11.24;68.06
70103;BME280;57470;50.034;15.256;2023-05-09T06:57:23;100067.28;;;10.76;65.89
70103;BME280;57470;50.034;15.256;2023-05-09T06:59:49;100070.19;;;11.58;64.89
70103;BME280;57470;50.034;15.256;2023-05-09T07:02:14;100064.47;;;10.94;68.70
70103;BME280;57470;50.034;15.256;2023-05-09T07:04:40;100067.31;;;10.46;68.38
70103;BME280;57470;50.034;15.256;2023-05-09T07:07:05;100063.50;;;10.80;69.96
70103;BME280;57470;50.034;15.256;2023-05-09T07:09:31;100070.38;;;11.55;67.59
70103;BME280;57470;50.034;15.256;2023-05-09T07:11:58;100068.59;;;10.99;68.08
70103;BME280;57470;50.034;15.256;2023-05-09T07:14:25;100064.59;;;11.49;68.36
70103;BME280;57470;50.034;15.256;2023-05-09T07:16:50;100061.00;;;11.07;66.95
70103;BME280;57470;50.034;15.256;2023-05-09T07:19:15;100060.41;;;11.59;67.09
70103;BME280;57470;50.034;15.256;2023-05-09T07:21:41;100065.16;;;11.82;64.69
70103;BME280;57470;50.034;15.256;2023-05-09T07:24:07;100047.94;;;11.59;65.71
70103;BME280;57470;50.034;15.256;2023-05-09T07:26:34;100050.38;;;12.18;64.57
70103;BME280;57470;50.034;15.256;2023-05-09T07:28:59;100046.72;;;12.06;65.50
70103;BME280;57470;50.034;15.256;2023-05-09T07:31:24;100039.13;;;11.45;67.27
70103;BME280;57470;50.034;15.256;2023-05-09T07:33:50;100033.38;;;12.33;65.31
70103;BME280;57470;50.034;15.256;2023-05-09T07:36:15;100027.38;;;12.29;63.60
70103;BME280;57470;50.034;15.256;2023-05-09T07:38:41;100024.09;;;12.38;64.33
70103;BME280;57470;50.034;15.256;2023-05-09T07:41:07;100015.75;;;12.70;65.32
70103;BME280;57470;50.034;15.256;2023-05-09T07:43:33;100013.91;;;12.58;64.73
70103;BME280;57470;50.034;15.256;2023-05-09T07:45:59;100013.81;;;12.59;63.58
70103;BME280;57470;50.034;15.256;2023-05-09T07:48:24;100002.94;;;12.88;64.01
70103;BME280;57470;50.034;15.256;2023-05-09T07:50:50;99998.88;;;12.69;64.96
70103;BME280;57470;50.034;15.256;2023-05-09T07:53:15;100002.00;;;13.14;63.87
70103;BME280;57470;50.034;15.256;2023-05-09T07:55:41;99991.72;;;13.21;66.08
70103;BME280;57470;50.034;15.256;2023-05-09T07:58:08;99990.66;;;12.85;64.55
70103;BME280;57470;50.034;15.256;2023-05-09T08:00:34;99994.59;;;12.92;65.86
70103;BME280;57470;50.034;15.256;2023-05-09T08:02:59;100002.72;;;13.29;65.09
70103;BME280;57470;50.034;15.256;2023-05-09T08:05:24;99994.34;;;13.08;63.92
70103;BME280;57470;50.034;15.256;2023-05-09T08:07:50;99994.78;;;13.40;62.63
70103;BME280;57470;50.034;15.256;2023-05-09T08:10:15;99987.09;;;13.35;64.01
70103;BME280;57470;50.034;15.256;2023-05-09T08:12:41;99989.56;;;13.13;65.65
70103;BME280;57470;50.034;15.256;2023-05-09T08:15:06;99982.03;;;13.43;64.71
70103;BME280;57470;50.034;15.256;2023-05-09T08:17:32;99975.91;;;13.67;65.97
70103;BME280;57470;50.034;15.256;2023-05-09T08:19:57;99975.25;;;13.63;64.25
70103;BME280;57470;50.034;15.256;2023-05-09T08:22:22;99970.09;;;13.73;65.08
70103;BME280;57470;50.034;15.256;2023-05-09T08:24:48;99970.94;;;13.49;64.11
70103;BME280;57470;50.034;15.256;2023-05-09T08:27:14;99972.22;;;13.44;65.14
70103;BME280;57470;50.034;15.256;2023-05-09T08:29:40;99970.53;;;14.14;65.89
70103;BME280;57470;50.034;15.256;2023-05-09T08:32:06;99970.97;;;13.61;65.05
70103;BME280;57470;50.034;15.256;2023-05-09T08:34:31;99961.75;;;13.77;65.28
70103;BME280;57470;50.034;15.256;2023-05-09T08:37:02;99961.50;;;13.80;65.05
70103;BME280;57470;50.034;15.256;2023-05-09T08:39:28;99951.59;;;14.17;64.25
70103;BME280;57470;50.034;15.256;2023-05-09T08:41:57;99941.16;;;14.25;64.20
70103;BME280;57470;50.034;15.256;2023-05-09T08:44:24;99942.38;;;14.21;63.79
70103;BME280;57470;50.034;15.256;2023-05-09T08:46:51;99940.06;;;14.63;66.18
70103;BME280;57470;50.034;15.256;2023-05-09T08:49:19;99930.84;;;14.67;65.15
70103;BME280;57470;50.034;15.256;2023-05-09T08:51:47;99929.75;;;14.81;64.64
70103;BME280;57470;50.034;15.256;2023-05-09T08:54:13;99933.16;;;15.05;64.01
70103;BME280;57470;50.034;15.256;2023-05-09T08:56:39;99925.97;;;15.28;63.92
70103;BME280;57470;50.034;15.256;2023-05-09T08:59:05;99929.59;;;15.38;63.08
70103;BME280;57470;50.034;15.256;2023-05-09T09:01:32;99929.13;;;14.88;65.09
70103;BME280;57470;50.034;15.256;2023-05-09T09:04:00;99925.47;;;14.89;64.40
70103;BME280;57470;50.034;15.256;2023-05-09T09:06:27;99930.13;;;15.21;63.00
70103;BME280;57470;50.034;15.256;2023-05-09T09:08:54;99927.53;;;14.97;64.28
70103;BME280;57470;50.034;15.256;2023-05-09T09:11:21;99922.69;;;15.02;63.17
70103;BME280;57470;50.034;15.256;2023-05-09T09:13:49;99921.22;;;15.20;61.50
70103;BME280;57470;50.034;15.256;2023-05-09T09:16:20;99906.03;;;15.53;62.85
70103;BME280;57470;50.034;15.256;2023-05-09T09:18:46;99904.84;;;15.46;62.00
70103;BME280;57470;50.034;15.256;2023-05-09T09:21:14;99910.34;;;15.22;60.60
70103;BME280;57470;50.034;15.256;2023-05-09T09:23:43;99904.47;;;15.50;62.87
70103;BME280;57470;50.034;15.256;2023-05-09T09:26:12;99893.00;;;15.59;62.16
70103;BME280;57470;50.034;15.256;2023-05-09T09:28:37;99889.91;;;15.75;60.85
70103;BME280;57470;50.034;15.256;2023-05-09T09:31:21;99888.56;;;15.81;61.71
70103;BME280;57470;50.034;15.256;2023-05-09T09:33:47;99879.44;;;16.45;60.97
70103;BME280;57470;50.034;15.256;2023-05-09T09:36:13;99880.22;;;15.84;59.75
70103;BME280;57470;50.034;15.256;2023-05-09T09:38:42;99871.91;;;16.19;61.62
70103;BME280;57470;50.034;15.256;2023-05-09T09:41:08;99869.53;;;16.46;60.04
70103;BME280;57470;50.034;15.256;2023-05-09T09:43:35;99861.75;;;16.22;60.93
70103;BME280;57470;50.034;15.256;2023-05-09T09:46:04;99857.28;;;16.11;59.04
70103;BME280;57470;50.034;15.256;2023-05-09T09:48:34;99850.94;;;16.12;60.01
70103;BME280;57470;50.034;15.256;2023-05-09T09:51:07;99856.44;;;16.83;61.06
70103;BME280;57470;50.034;15.256;2023-05-09T09:53:41;99858.75;;;16.16;59.30
70103;BME280;57470;50.034;15.256;2023-05-09T09:56:08;99860.16;;;16.20;58.19
70103;BME280;57470;50.034;15.256;2023-05-09T09:58:34;99846.53;;;16.53;59.24
70103;BME280;57470;50.034;15.256;2023-05-09T10:01:18;99860.34;;;16.48;59.49
70103;BME280;57470;50.034;15.256;2023-05-09T10:03:46;99847.53;;;16.31;58.91
70103;BME280;57470;50.034;15.256;2023-05-09T10:06:14;99852.69;;;16.65;58.67
70103;BME280;57470;50.034;15.256;2023-05-09T10:08:43;99854.13;;;16.99;57.70
70103;BME280;57470;50.034;15.256;2023-05-09T10:11:12;99840.63;;;16.59;56.79
70103;BME280;57470;50.034;15.256;2023-05-09T10:13:38;99837.50;;;16.84;58.04
70103;BME280;57470;50.034;15.256;2023-05-09T10:16:08;99833.22;;;17.12;58.39
70103;BME280;57470;50.034;15.256;2023-05-09T10:18:35;99841.53;;;17.09;57.27
70103;BME280;57470;50.034;15.256;2023-05-09T10:21:00;99833.56;;;17.48;59.09
70103;BME280;57470;50.034;15.256;2023-05-09T10:23:33;99832.66;;;17.28;57.81
70103;BME280;57470;50.034;15.256;2023-05-09T10:28:34;99812.88;;;17.39;56.05
70103;BME280;57470;50.034;15.256;2023-05-09T10:31:13;99810.84;;;17.12;56.53
70103;BME280;57470;50.034;15.256;2023-05-09T10:33:46;99814.53;;;17.11;58.46
70103;BME280;57470;50.034;15.256;2023-05-09T10:36:14;99816.75;;;16.96;57.25
70103;BME280;57470;50.034;15.256;2023-05-09T10:38:41;99807.22;;;17.42;57.46
70103;BME280;57470;50.034;15.256;2023-05-09T10:41:07;99795.06;;;17.47;57.00
70103;BME280;57470;50.034;15.256;2023-05-09T10:43:34;99800.72;;;18.02;57.84
70103;BME280;57470;50.034;15.256;2023-05-09T10:46:01;99782.72;;;18.03;55.09
70103;BME280;57470;50.034;15.256;2023-05-09T10:48:27;99787.25;;;18.49;56.42
70103;BME280;57470;50.034;15.256;2023-05-09T10:50:53;99782.63;;;17.66;56.22
70103;BME280;57470;50.034;15.256;2023-05-09T10:53:19;99781.47;;;17.87;56.20
70103;BME280;57470;50.034;15.256;2023-05-09T10:55:51;99773.53;;;18.05;55.48
70103;BME280;57470;50.034;15.256;2023-05-09T10:58:23;99773.00;;;17.63;55.51
70103;BME280;57470;50.034;15.256;2023-05-09T11:00:50;99768.00;;;18.07;57.25
70103;BME280;57470;50.034;15.256;2023-05-09T11:03:16;99767.75;;;17.61;56.67
70103;BME280;57470;50.034;15.256;2023-05-09T11:05:44;99756.19;;;18.08;55.20
70103;BME280;57470;50.034;15.256;2023-05-09T11:08:27;99759.41;;;17.36;55.77
70103;BME280;57470;50.034;15.256;2023-05-09T11:10:53;99764.22;;;17.80;56.63
70103;BME280;57470;50.034;15.256;2023-05-09T11:13:24;99765.75;;;17.92;55.65
70103;BME280;57470;50.034;15.256;2023-05-09T11:18:17;99747.09;;;18.18;55.64
70103;BME280;57470;50.034;15.256;2023-05-09T11:20:45;99745.75;;;18.42;54.65
70103;BME280;57470;50.034;15.256;2023-05-09T11:23:15;99740.53;;;17.93;53.66
70103;BME280;57470;50.034;15.256;2023-05-09T11:25:44;99745.88;;;18.13;55.06
70103;BME280;57470;50.034;15.256;2023-05-09T11:28:25;99741.72;;;18.18;54.44
70103;BME280;57470;50.034;15.256;2023-05-09T11:30:52;99726.66;;;18.90;53.30
70103;BME280;57470;50.034;15.256;2023-05-09T11:33:22;99738.19;;;18.82;53.98
70103;BME280;57470;50.034;15.256;2023-05-09T11:38:42;99731.69;;;18.57;53.83
70103;BME280;57470;50.034;15.256;2023-05-09T11:41:08;99717.91;;;18.88;54.32
70103;BME280;57470;50.034;15.256;2023-05-09T11:43:35;99704.88;;;19.01;53.09
70103;BME280;57470;50.034;15.256;2023-05-09T11:46:02;99720.03;;;18.84;52.70
70103;BME280;57470;50.034;15.256;2023-05-09T11:48:27;99714.44;;;19.31;54.63
70103;BME280;57470;50.034;15.256;2023-05-09T11:50:52;99707.56;;;19.36;53.92
70103;BME280;57470;50.034;15.256;2023-05-09T11:53:18;99706.66;;;19.10;52.37
70103;BME280;57470;50.034;15.256;2023-05-09T11:55:43;99698.78;;;19.34;52.73
70103;BME280;57470;50.034;15.256;2023-05-09T11:58:09;99696.34;;;19.59;53.58
70103;BME280;57470;50.034;15.256;2023-05-09T12:00:34;99695.56;;;19.92;53.43
70103;BME280;57470;50.034;15.256;2023-05-09T12:03:04;99693.72;;;19.93;50.78
70103;BME280;57470;50.034;15.256;2023-05-09T12:05:30;99682.09;;;19.13;51.98
70103;BME280;57470;50.034;15.256;2023-05-09T12:08:01;99666.66;;;19.59;52.51
70103;BME280;57470;50.034;15.256;2023-05-09T12:10:27;99668.72;;;19.65;53.52
70103;BME280;57470;50.034;15.256;2023-05-09T12:12:53;99668.53;;;19.23;51.95
70103;BME280;57470;50.034;15.256;2023-05-09T12:15:20;99660.28;;;18.89;50.58
70103;BME280;57470;50.034;15.256;2023-05-09T12:17:46;99651.63;;;19.38;51.85
70103;BME280;57470;50.034;15.256;2023-05-09T12:20:12;99653.97;;;20.11;52.29
70103;BME280;57470;50.034;15.256;2023-05-09T12:22:41;99643.28;;;19.67;53.60
70103;BME280;57470;50.034;15.256;2023-05-09T12:25:08;99645.44;;;19.64;51.30
70103;BME280;57470;50.034;15.256;2023-05-09T12:27:35;99650.41;;;19.15;52.62
70103;BME280;57470;50.034;15.256;2023-05-09T12:30:03;99653.06;;;19.94;50.93
70103;BME280;57470;50.034;15.256;2023-05-09T12:32:32;99645.06;;;19.59;49.21
70103;BME280;57470;50.034;15.256;2023-05-09T12:34:59;99642.72;;;20.23;49.65
70103;BME280;57470;50.034;15.256;2023-05-09T12:37:24;99628.28;;;20.41;49.29
70103;BME280;57470;50.034;15.256;2023-05-09T12:40:19;99624.28;;;20.53;47.73
70103;BME280;57470;50.034;15.256;2023-05-09T12:42:45;99618.59;;;20.22;49.03
70103;BME280;57470;50.034;15.256;2023-05-09T12:45:11;99621.53;;;20.37;49.22
70103;BME280;57470;50.034;15.256;2023-05-09T12:47:37;99615.34;;;20.69;49.10
70103;BME280;57470;50.034;15.256;2023-05-09T12:50:05;99612.25;;;20.05;48.58
70103;BME280;57470;50.034;15.256;2023-05-09T12:52:41;99618.34;;;19.73;48.81
70103;BME280;57470;50.034;15.256;2023-05-09T12:55:08;99610.41;;;19.72;47.24
70103;BME280;57470;50.034;15.256;2023-05-09T12:57:34;99604.91;;;19.56;47.39
70103;BME280;57470;50.034;15.256;2023-05-09T13:00:01;99591.84;;;20.53;46.74
70103;BME280;57470;50.034;15.256;2023-05-09T13:02:33;99595.00;;;19.98;48.54
70103;BME280;57470;50.034;15.256;2023-05-09T13:05:10;99592.00;;;19.67;48.85